Time;durP1;ratioP1;P1;durP2;ratioP2;P2;SDS_P1;SDS_P2;PMS_P1;PMS_P2;Temp;Humidity;BMP_temperature;BMP_pressure;BME280_temperature;BME280_humidity;BME280_pressure;Samples;Min_cycle;Max_cycle;Signal;HPM_P1;HPM_P2
2021/12/23 00:01:24;;;;;;;21.33;9.13;;;;;;;-5.64;100.00;99258.84;4860852;29;20025;-63
2021/12/23 00:03:50;;;;;;;17.97;9.70;;;;;;;-5.67;100.00;99251.25;4860943;29;20048;-63
2021/12/23 00:06:15;;;;;;;19.97;9.17;;;;;;;-5.61;100.00;99257.81;4860718;29;20078;-63
2021/12/23 00:08:41;;;;;;;20.10;9.90;;;;;;;-5.59;100.00;99255.97;4860522;29;20159;-63
2021/12/23 00:11:07;;;;;;;19.67;9.25;;;;;;;-5.61;100.00;99250.03;4860610;29;20037;-63
2021/12/23 00:13:35;;;;;;;17.53;9.10;;;;;;;-5.62;100.00;99245.75;4860782;29;20108;-63
2021/12/23 00:16:04;;;;;;;22.00;9.82;;;;;;;-5.65;100.00;99235.50;4859430;29;20503;-63
2021/12/23 00:23:56;;;;;;;18.58;9.45;;;;;;;-5.88;100.00;99236.91;4860446;29;20041;-63
2021/12/23 00:26:22;;;;;;;19.35;9.90;;;;;;;-5.90;100.00;99236.19;4860402;29;20034;-63
2021/12/23 00:28:48;;;;;;;20.83;10.30;;;;;;;-5.88;100.00;99235.13;4860433;29;20055;-63
2021/12/23 00:31:16;;;;;;;19.90;9.90;;;;;;;-5.85;100.00;99232.34;4828485;29;20094;-63
2021/12/23 00:33:42;;;;;;;21.17;10.15;;;;;;;-5.82;100.00;99230.50;4860393;29;20029;-63
2021/12/23 00:36:10;;;;;;;20.25;10.20;;;;;;;-5.83;100.00;99227.06;4844174;29;20452;-63
2021/12/23 00:38:41;;;;;;;18.23;9.35;;;;;;;-5.74;100.00;99218.69;4860372;29;20419;-63
2021/12/23 00:41:08;;;;;;;21.80;9.77;;;;;;;-5.66;100.00;99213.88;4860140;29;20120;-63
2021/12/23 00:43:35;;;;;;;23.95;9.93;;;;;;;-5.54;100.00;99214.91;4843930;29;20517;-63
2021/12/23 00:46:03;;;;;;;19.13;9.65;;;;;;;-5.67;100.00;99216.56;4828184;29;20034;-63
2021/12/23 00:48:29;;;;;;;22.13;9.52;;;;;;;-5.68;100.00;99210.53;4860083;29;20097;-63
2021/12/23 00:50:56;;;;;;;21.90;9.43;;;;;;;-5.72;100.00;99206.41;4843419;29;20026;-63
2021/12/23 00:53:23;;;;;;;19.42;9.00;;;;;;;-5.73;100.00;99207.34;4860023;29;20021;-63
2021/12/23 00:55:54;;;;;;;18.80;8.95;;;;;;;-5.78;100.00;99209.41;4859868;29;20033;-64
2021/12/23 00:58:21;;;;;;;21.70;10.15;;;;;;;-5.86;100.00;99203.81;4843290;29;20089;-63
2021/12/23 01:00:48;;;;;;;22.27;10.02;;;;;;;-5.93;100.00;99211.19;4859915;29;20108;-63
2021/12/23 01:03:14;;;;;;;23.67;9.93;;;;;;;-5.95;100.00;99213.03;4859866;29;20041;-64
2021/12/23 01:05:41;;;;;;;20.33;9.65;;;;;;;-5.99;100.00;99208.94;4859850;29;20037;-63
2021/12/23 01:08:07;;;;;;;23.23;10.82;;;;;;;-5.92;100.00;99212.03;4859455;29;20038;-63
2021/12/23 01:10:34;;;;;;;22.55;10.57;;;;;;;-5.90;100.00;99220.59;4843222;29;20033;-64
2021/12/23 01:13:03;;;;;;;20.45;9.80;;;;;;;-5.85;100.00;99218.50;4859750;29;20636;-64
2021/12/23 01:18:07;;;;;;;23.90;10.52;;;;;;;-5.99;100.00;99229.75;4859584;29;20487;-63
2021/12/23 01:20:36;;;;;;;22.00;10.82;;;;;;;-5.90;100.00;99225.78;4859795;29;20075;-63
2021/12/23 01:23:07;;;;;;;25.65;11.30;;;;;;;-6.02;100.00;99221.31;4859387;29;20423;-64
2021/12/23 01:25:35;;;;;;;23.40;10.85;;;;;;;-5.99;100.00;99216.75;4859499;29;20030;-63
2021/12/23 01:28:01;;;;;;;20.52;10.23;;;;;;;-5.94;100.00;99216.47;4859246;29;20053;-63
2021/12/23 01:30:27;;;;;;;21.73;10.60;;;;;;;-6.07;100.00;99216.38;4859395;29;20124;-64
2021/12/23 01:32:55;;;;;;;24.33;11.70;;;;;;;-6.16;100.00;99219.50;4859138;29;20141;-63
2021/12/23 01:35:23;;;;;;;22.20;10.80;;;;;;;-6.09;100.00;99215.63;4859228;29;20269;-63
2021/12/23 01:37:48;;;;;;;24.50;10.90;;;;;;;-6.01;100.00;99213.41;4859355;29;20120;-63
2021/12/23 01:40:16;;;;;;;20.40;10.37;;;;;;;-5.94;100.00;99219.09;4859286;29;20026;-63
2021/12/23 01:42:43;;;;;;;21.23;10.00;;;;;;;-5.90;100.00;99211.00;4859282;29;20205;-63
2021/12/23 01:45:15;;;;;;;23.05;10.25;;;;;;;-5.95;100.00;99218.25;4859176;29;20030;-63
2021/12/23 01:47:42;;;;;;;27.50;10.40;;;;;;;-5.95;100.00;99207.00;4859039;29;20383;-63
2021/12/23 01:50:10;;;;;;;21.50;10.63;;;;;;;-6.04;100.00;99187.56;4859065;29;20441;-63
2021/12/23 01:52:35;;;;;;;21.45;10.07;;;;;;;-6.00;100.00;99193.44;4842695;29;20040;-63
2021/12/23 01:55:02;;;;;;;23.17;10.23;;;;;;;-5.84;100.00;99191.53;4859114;29;20029;-63
2021/12/23 01:57:31;;;;;;;23.25;10.80;;;;;;;-6.01;100.00;99195.22;4859158;29;20423;-63
2021/12/23 02:00:10;;;;;;;20.58;10.05;;;;;;;-5.96;100.00;99197.50;4858937;29;20041;-63
2021/12/23 02:02:37;;;;;;;21.85;10.35;;;;;;;-5.98;100.00;99187.19;4859302;29;20037;-63
2021/12/23 02:05:03;;;;;;;21.13;10.25;;;;;;;-6.00;100.00;99189.03;4858930;29;20022;-63
2021/12/23 02:07:29;;;;;;;20.65;9.85;;;;;;;-6.02;100.00;99182.28;4858882;29;20037;-63
2021/12/23 02:09:57;;;;;;;22.37;10.13;;;;;;;-6.21;100.00;99191.16;4858852;29;20046;-63
2021/12/23 02:12:24;;;;;;;23.13;10.65;;;;;;;-6.16;100.00;99197.88;4858949;29;20041;-63
2021/12/23 02:14:50;;;;;;;21.48;10.40;;;;;;;-6.19;100.00;99185.88;4859120;29;20029;-63
2021/12/23 02:17:15;;;;;;;24.27;10.10;;;;;;;-6.22;100.00;99178.25;4858870;29;20037;-63
2021/12/23 02:19:41;;;;;;;21.27;10.73;;;;;;;-6.33;100.00;99165.88;4858875;29;20045;-63
2021/12/23 02:22:06;;;;;;;23.87;10.07;;;;;;;-6.31;100.00;99173.59;4858911;29;20038;-63
2021/12/23 02:24:32;;;;;;;22.67;9.57;;;;;;;-6.41;100.00;99177.66;4859009;29;20444;-63
2021/12/23 02:26:57;;;;;;;22.07;10.77;;;;;;;-6.49;100.00;99174.69;4842313;29;20033;-63
2021/12/23 02:29:23;;;;;;;25.47;11.10;;;;;;;-6.46;100.00;99171.91;4858973;29;20033;-63
2021/12/23 02:31:50;;;;;;;21.03;10.70;;;;;;;-6.47;100.00;99165.03;4858945;29;20392;-63
2021/12/23 02:34:19;;;;;;;20.20;10.70;;;;;;;-6.58;100.00;99161.28;4859011;29;20069;-63
2021/12/23 02:36:52;;;;;;;18.15;9.63;;;;;;;-6.57;100.00;99159.50;4859017;29;20056;-63
2021/12/23 02:39:20;;;;;;;16.40;8.25;;;;;;;-6.69;100.00;99155.84;4842408;29;20033;-63
2021/12/23 02:41:46;;;;;;;20.70;10.57;;;;;;;-6.73;100.00;99156.97;4858931;29;20168;-63
2021/12/23 02:44:13;;;;;;;23.90;10.68;;;;;;;-6.81;100.00;99161.78;4858744;29;20068;-63
2021/12/23 02:46:39;;;;;;;27.17;10.50;;;;;;;-6.85;100.00;99160.28;4861855;29;20090;-63
2021/12/23 02:49:04;;;;;;;23.23;11.70;;;;;;;-6.81;100.00;99158.34;4862205;29;20029;-63
2021/12/23 02:51:30;;;;;;;30.13;13.27;;;;;;;-6.75;100.00;99155.38;4845898;29;20033;-63
2021/12/23 02:53:56;;;;;;;30.73;13.27;;;;;;;-6.66;100.00;99137.50;4862465;29;20037;-63
2021/12/23 02:56:21;;;;;;;40.87;16.57;;;;;;;-6.55;100.00;99146.44;4862089;29;20472;-63
2021/12/23 02:58:47;;;;;;;44.70;17.60;;;;;;;-6.38;100.00;99148.88;4845740;29;20564;-63
2021/12/23 03:01:16;;;;;;;47.73;18.67;;;;;;;-6.25;100.00;99140.28;4862112;29;20479;-63
2021/12/23 03:03:43;;;;;;;45.83;17.77;;;;;;;-6.16;100.00;99149.28;4862150;29;20444;-63
2021/12/23 03:06:11;;;;;;;50.88;19.17;;;;;;;-6.08;100.00;99136.66;4862036;29;20486;-63
2021/12/23 03:08:36;;;;;;;45.88;19.52;;;;;;;-6.04;100.00;99130.34;4861754;29;20063;-63
2021/12/23 03:11:04;;;;;;;44.00;18.23;;;;;;;-5.98;100.00;99136.94;4861954;29;20029;-63
2021/12/23 03:13:30;;;;;;;45.03;18.55;;;;;;;-5.93;100.00;99133.13;4861986;29;20395;-63
2021/12/23 03:15:58;;;;;;;42.13;17.30;;;;;;;-5.97;100.00;99133.41;4845399;29;20112;-64
2021/12/23 03:18:24;;;;;;;38.47;16.85;;;;;;;-5.97;100.00;99128.19;4861722;29;20038;-63
2021/12/23 03:20:50;;;;;;;38.20;17.02;;;;;;;-5.97;100.00;99133.41;4861841;29;20511;-63
2021/12/23 03:23:16;;;;;;;44.13;17.33;;;;;;;-5.99;100.00;99136.09;4861651;29;20041;-63
2021/12/23 03:25:41;;;;;;;42.73;16.60;;;;;;;-5.87;100.00;99127.50;4861509;29;20041;-64
2021/12/23 03:28:07;;;;;;;40.63;15.57;;;;;;;-5.79;100.00;99134.03;4861349;29;20030;-64
2021/12/23 03:30:33;;;;;;;37.77;15.63;;;;;;;-5.82;100.00;99134.22;4861574;29;20037;-64
2021/12/23 03:32:58;;;;;;;39.10;17.07;;;;;;;-5.87;100.00;99119.69;4844913;29;20535;-63
2021/12/23 03:35:24;;;;;;;44.13;16.97;;;;;;;-5.76;100.00;99110.41;4861548;29;20081;-63
2021/12/23 03:37:50;;;;;;;40.30;17.63;;;;;;;-5.63;100.00;99111.31;4861521;29;20037;-63
2021/12/23 03:40:15;;;;;;;53.57;21.13;;;;;;;-5.49;100.00;99113.88;4861360;29;20038;-63
2021/12/23 03:42:41;;;;;;;60.67;21.77;;;;;;;-5.39;100.00;99117.56;4861337;29;20030;-63
2021/12/23 03:45:08;;;;;;;57.27;21.70;;;;;;;-5.32;100.00;99131.06;4861230;29;20476;-63
2021/12/23 03:47:35;;;;;;;58.38;23.15;;;;;;;-5.18;100.00;99117.97;4844748;29;20193;-63
2021/12/23 03:50:01;;;;;;;65.78;25.10;;;;;;;-5.02;100.00;99112.63;4861146;29;20522;-63
2021/12/23 03:52:26;;;;;;;65.30;23.30;;;;;;;-4.92;100.00;99113.69;4860967;29;20029;-63
2021/12/23 03:54:52;;;;;;;62.20;23.93;;;;;;;-4.90;100.00;99112.66;4861050;29;20145;-63
2021/12/23 03:57:18;;;;;;;58.27;22.50;;;;;;;-4.78;100.00;99098.81;4859437;29;20033;-63
2021/12/23 03:59:43;;;;;;;67.00;25.13;;;;;;;-4.72;100.00;99079.31;4860996;29;20029;-64
2021/12/23 04:02:09;;;;;;;57.87;23.07;;;;;;;-4.65;100.00;99064.97;4860765;29;20029;-64
2021/12/23 04:04:35;;;;;;;60.70;23.45;;;;;;;-4.55;100.00;99086.03;4859616;29;20044;-63
2021/12/23 04:07:01;;;;;;;63.23;23.50;;;;;;;-4.45;100.00;99100.13;4860635;29;20046;-63
2021/12/23 04:09:27;;;;;;;61.97;23.70;;;;;;;-4.32;100.00;99102.75;4860104;29;20053;-63
2021/12/23 04:11:53;;;;;;;58.87;23.60;;;;;;;-4.33;100.00;99094.06;4860878;29;20060;-63
2021/12/23 04:14:18;;;;;;;53.70;21.83;;;;;;;-4.28;100.00;99091.16;4860604;29;20040;-63
2021/12/23 04:16:44;;;;;;;58.17;21.93;;;;;;;-4.20;100.00;99084.47;4860680;29;20041;-64
2021/12/23 04:19:11;;;;;;;55.10;22.60;;;;;;;-4.15;100.00;99084.16;4860440;29;20033;-63
2021/12/23 04:21:38;;;;;;;58.92;23.55;;;;;;;-4.10;100.00;99061.19;4860653;29;20391;-63
2021/12/23 04:24:06;;;;;;;55.67;21.77;;;;;;;-4.14;100.00;99064.94;4839710;29;20126;-63
2021/12/23 04:26:31;;;;;;;56.53;21.63;;;;;;;-4.14;100.00;99080.59;4860319;29;20030;-63
2021/12/23 04:28:57;;;;;;;53.77;21.97;;;;;;;-4.13;100.00;99079.66;4860425;29;20041;-63
2021/12/23 04:31:24;;;;;;;49.77;21.70;;;;;;;-4.11;100.00;99067.34;4860259;29;20040;-64
2021/12/23 04:33:51;;;;;;;50.13;21.30;;;;;;;-4.05;100.00;99074.75;4860418;29;20090;-64
2021/12/23 04:36:17;;;;;;;50.22;21.08;;;;;;;-4.09;100.00;99078.53;4860239;29;20029;-63
2021/12/23 04:38:45;;;;;;;56.53;21.85;;;;;;;-4.00;100.00;99075.25;4843704;29;20033;-63
2021/12/23 04:41:12;;;;;;;51.42;22.27;;;;;;;-4.11;100.00;99069.97;4860067;29;20037;-63
2021/12/23 04:43:38;;;;;;;55.78;21.42;;;;;;;-4.00;100.00;99070.03;4858908;29;20496;-63
2021/12/23 04:46:04;;;;;;;53.00;21.87;;;;;;;-4.08;100.00;99073.19;4843505;29;20033;-63
2021/12/23 04:48:31;;;;;;;52.30;20.65;;;;;;;-4.03;100.00;99068.47;4860025;29;20570;-63
2021/12/23 04:50:57;;;;;;;57.22;22.70;;;;;;;-4.06;100.00;99066.09;4860023;29;20041;-63
2021/12/23 04:53:23;;;;;;;49.97;21.92;;;;;;;-4.03;100.00;99046.75;4843394;29;20044;-63
2021/12/23 04:55:48;;;;;;;52.37;20.80;;;;;;;-4.00;100.00;99075.25;4859946;29;20108;-63
2021/12/23 04:58:14;;;;;;;51.00;20.93;;;;;;;-4.01;100.00;99076.19;4859679;29;20424;-63
2021/12/23 05:00:42;;;;;;;51.07;20.60;;;;;;;-3.95;100.00;99069.75;4859948;29;20032;-64
2021/12/23 05:03:08;;;;;;;45.15;19.20;;;;;;;-4.04;100.00;99061.59;4859988;29;20356;-63
2021/12/23 05:05:33;;;;;;;53.40;21.67;;;;;;;-4.26;100.00;99056.19;4859931;29;20081;-64
2021/12/23 05:07:59;;;;;;;49.20;20.07;;;;;;;-4.39;100.00;99061.44;4842507;29;20288;-63
2021/12/23 05:10:25;;;;;;;51.50;21.00;;;;;;;-4.40;100.00;99061.53;4859882;29;20152;-63
2021/12/23 05:12:51;;;;;;;49.55;20.85;;;;;;;-4.34;100.00;99058.50;4843484;29;20037;-63
2021/12/23 05:15:19;;;;;;;51.17;20.47;;;;;;;-4.19;100.00;99046.19;4859821;29;20044;-63
2021/12/23 05:17:46;;;;;;;52.90;20.77;;;;;;;-4.29;100.00;99040.75;4859673;29;20033;-63
2021/12/23 05:20:15;;;;;;;47.53;20.33;;;;;;;-4.30;100.00;99040.88;4859345;29;20038;-63
2021/12/23 05:22:41;;;;;;;51.35;19.83;;;;;;;-4.31;100.00;99039.19;4859497;29;20303;-63
2021/12/23 05:25:09;;;;;;;53.42;21.20;;;;;;;-4.21;100.00;99042.84;4859628;29;20105;-63
2021/12/23 05:27:35;;;;;;;48.67;20.20;;;;;;;-4.35;100.00;99041.16;4858206;29;20030;-63
2021/12/23 05:30:02;;;;;;;53.45;21.13;;;;;;;-4.28;100.00;99025.94;4859488;29;20093;-63
2021/12/23 05:32:28;;;;;;;53.65;21.80;;;;;;;-4.26;100.00;99026.66;4859301;29;20552;-64
2021/12/23 05:34:53;;;;;;;55.03;21.42;;;;;;;-4.28;100.00;99037.22;4859643;29;20053;-63
2021/12/23 05:37:19;;;;;;;53.87;20.57;;;;;;;-4.19;100.00;99033.97;4842792;29;20767;-63
2021/12/23 05:39:45;;;;;;;54.07;22.47;;;;;;;-4.27;100.00;99030.22;4859238;29;20086;-63
2021/12/23 05:42:10;;;;;;;49.20;20.47;;;;;;;-4.26;100.00;99031.88;4842712;29;20029;-63
2021/12/23 05:44:36;;;;;;;52.57;20.90;;;;;;;-4.27;100.00;99031.06;4842518;29;20037;-63
2021/12/23 05:47:02;;;;;;;49.27;20.10;;;;;;;-4.25;100.00;99030.94;4858910;29;20116;-63
2021/12/23 05:49:27;;;;;;;52.47;20.43;;;;;;;-4.22;100.00;99033.34;4859288;29;20037;-62
2021/12/23 05:51:53;;;;;;;50.60;20.30;;;;;;;-4.20;100.00;99027.06;4859236;29;20030;-62
2021/12/23 05:54:19;;;;;;;51.40;21.30;;;;;;;-4.15;100.00;99026.75;4859109;29;20115;-62
2021/12/23 05:56:44;;;;;;;48.73;19.47;;;;;;;-4.04;100.00;99021.63;4859047;29;20034;-62
2021/12/23 05:59:10;;;;;;;56.33;21.83;;;;;;;-3.95;100.00;99018.38;4858859;29;20089;-62
2021/12/23 06:01:35;;;;;;;49.40;20.80;;;;;;;-3.94;100.00;99011.38;4858877;29;20106;-62
2021/12/23 06:04:01;;;;;;;52.97;21.73;;;;;;;-3.93;100.00;99005.22;4858872;29;20041;-62
2021/12/23 06:06:27;;;;;;;53.40;20.33;;;;;;;-3.76;100.00;98994.38;4842489;29;20025;-63
2021/12/23 06:08:52;;;;;;;55.60;22.17;;;;;;;-3.93;100.00;99007.81;4858725;29;20057;-62
2021/12/23 06:11:18;;;;;;;56.27;23.00;;;;;;;-3.81;100.00;98999.13;4858885;29;20100;-62
2021/12/23 06:13:43;;;;;;;53.13;22.37;;;;;;;-3.76;100.00;98990.00;4858817;29;20145;-62
2021/12/23 06:16:09;;;;;;;55.03;22.43;;;;;;;-3.80;100.00;98985.94;4858780;29;20053;-62
2021/12/23 06:18:35;;;;;;;54.57;21.50;;;;;;;-3.72;100.00;98996.69;4858755;29;20104;-62
2021/12/23 06:21:01;;;;;;;63.40;24.60;;;;;;;-3.70;100.00;98992.19;4862474;29;20396;-64
2021/12/23 06:23:26;;;;;;;56.20;22.52;;;;;;;-3.70;100.00;99002.63;4862083;29;20086;-62
2021/12/23 06:25:53;;;;;;;50.23;20.90;;;;;;;-3.71;100.00;98998.34;4845774;29;20045;-62
2021/12/23 06:28:19;;;;;;;54.70;22.25;;;;;;;-3.69;100.00;98998.22;4862347;29;20373;-62
2021/12/23 06:30:44;;;;;;;53.37;21.60;;;;;;;-3.72;100.00;99001.91;4862486;29;20101;-62
2021/12/23 06:33:11;;;;;;;53.83;22.70;;;;;;;-3.84;100.00;98988.88;4862311;29;20706;-62
2021/12/23 06:35:37;;;;;;;53.92;21.98;;;;;;;-3.73;100.00;98988.94;4862487;29;20162;-62
2021/12/23 06:38:06;;;;;;;55.17;21.63;;;;;;;-3.78;100.00;98985.81;4845759;29;20050;-62
2021/12/23 06:40:32;;;;;;;60.03;23.90;;;;;;;-3.75;100.00;98990.84;4856739;29;20026;-63
2021/12/23 06:42:57;;;;;;;55.30;23.00;;;;;;;-3.66;100.00;98985.78;4848001;29;20044;-64
2021/12/23 06:45:23;;;;;;;55.30;22.20;;;;;;;-3.72;100.00;98982.78;4843554;29;20117;-62
2021/12/23 06:47:49;;;;;;;52.77;21.77;;;;;;;-3.75;100.00;98985.63;4843714;29;20038;-63
2021/12/23 06:50:17;;;;;;;57.77;23.10;;;;;;;-3.65;100.00;98997.91;4832917;29;20053;-63
2021/12/23 06:52:43;;;;;;;57.92;22.88;;;;;;;-3.68;100.00;99000.72;4849878;29;20026;-62
2021/12/23 06:55:11;;;;;;;50.40;21.63;;;;;;;-3.68;100.00;99003.34;4851008;29;20090;-63
2021/12/23 06:57:40;;;;;;;54.10;21.88;;;;;;;-3.64;100.00;98988.28;4852024;29;20075;-64
2021/12/23 07:00:09;;;;;;;56.78;22.73;;;;;;;-3.69;100.00;98993.00;4852805;29;20040;-63
2021/12/23 07:02:38;;;;;;;53.85;21.80;;;;;;;-3.57;100.00;99001.72;4853102;29;20093;-63
2021/12/23 07:05:05;;;;;;;55.92;23.15;;;;;;;-3.59;100.00;98987.97;4851932;29;20041;-63
2021/12/23 07:07:40;;;;;;;56.15;21.67;;;;;;;-3.47;100.00;98984.47;4861845;29;20061;-62
2021/12/23 07:10:09;;;;;;;61.15;24.15;;;;;;;-3.53;100.00;98993.56;4861841;29;20500;-63
2021/12/23 07:12:35;;;;;;;58.88;23.73;;;;;;;-3.50;100.00;98997.72;4845129;29;20085;-63
2021/12/23 07:15:00;;;;;;;55.43;21.27;;;;;;;-3.63;100.00;98996.94;4861750;29;20503;-64
2021/12/23 07:17:26;;;;;;;57.63;22.03;;;;;;;-3.61;100.00;98982.00;4861645;29;20484;-63
2021/12/23 07:19:52;;;;;;;54.53;21.50;;;;;;;-3.52;100.00;98976.13;4861691;29;20029;-64
2021/12/23 07:22:17;;;;;;;57.27;23.40;;;;;;;-3.50;100.00;98976.84;4861596;29;20029;-63
2021/12/23 07:24:43;;;;;;;59.17;23.80;;;;;;;-3.54;100.00;98978.84;4861449;29;20048;-64
2021/12/23 07:27:09;;;;;;;56.27;22.30;;;;;;;-3.60;100.00;98986.28;4861484;29;20433;-63
2021/12/23 07:29:36;;;;;;;53.97;21.75;;;;;;;-3.70;100.00;98978.31;4861404;29;20646;-64
2021/12/23 07:32:04;;;;;;;53.80;22.40;;;;;;;-3.54;100.00;98980.59;4844288;29;20149;-63
2021/12/23 07:34:31;;;;;;;58.08;23.00;;;;;;;-3.42;100.00;98969.28;4855540;29;20029;-63
2021/12/23 07:36:56;;;;;;;57.35;22.05;;;;;;;-3.39;100.00;98971.66;4852549;29;20041;-63
2021/12/23 07:39:22;;;;;;;53.93;21.27;;;;;;;-3.46;100.00;98965.22;4838519;29;20037;-63
2021/12/23 07:41:48;;;;;;;57.90;22.60;;;;;;;-3.35;100.00;98973.13;4860963;29;20137;-64
2021/12/23 07:44:20;;;;;;;56.23;23.13;;;;;;;-3.50;100.00;98980.28;4859358;29;20068;-62
2021/12/23 07:46:47;;;;;;;56.22;22.83;;;;;;;-3.35;100.00;98980.94;4844242;29;20029;-63
2021/12/23 07:49:13;;;;;;;61.67;24.10;;;;;;;-3.55;100.00;98974.56;4860675;29;20033;-64
2021/12/23 07:51:39;;;;;;;54.13;21.23;;;;;;;-3.52;100.00;98963.06;4859999;29;20034;-64
2021/12/23 07:54:05;;;;;;;53.67;21.88;;;;;;;-3.52;100.00;98970.88;4856350;29;20038;-64
2021/12/23 07:56:30;;;;;;;58.27;22.63;;;;;;;-3.43;100.00;98976.28;4842090;29;20109;-64
2021/12/23 07:58:56;;;;;;;57.80;21.90;;;;;;;-3.46;100.00;98979.09;4825495;29;20112;-64
2021/12/23 08:01:21;;;;;;;56.27;22.03;;;;;;;-3.34;100.00;98982.59;4842387;29;20488;-63
2021/12/23 08:03:47;;;;;;;57.40;21.07;;;;;;;-3.24;100.00;98982.78;4842264;29;20034;-62
2021/12/23 08:06:13;;;;;;;54.87;22.50;;;;;;;-3.16;100.00;98988.25;4832869;29;20535;-63
2021/12/23 08:08:38;;;;;;;54.00;21.93;;;;;;;-3.20;100.00;98971.97;4828530;29;20121;-64
2021/12/23 08:11:06;;;;;;;51.50;21.77;;;;;;;-3.18;100.00;98974.47;4860839;29;20033;-64
2021/12/23 08:13:32;;;;;;;54.05;21.55;;;;;;;-3.16;100.00;98978.63;4849757;29;20026;-65
2021/12/23 08:15:58;;;;;;;52.47;21.23;;;;;;;-3.25;100.00;98971.47;4855124;29;20116;-65
2021/12/23 08:18:24;;;;;;;55.85;21.90;;;;;;;-3.26;100.00;98975.03;4859100;29;20770;-65
2021/12/23 08:20:50;;;;;;;53.23;22.27;;;;;;;-3.18;100.00;98971.84;4838234;29;20038;-66
2021/12/23 08:23:16;;;;;;;54.50;22.57;;;;;;;-3.19;100.00;98965.78;4849875;29;20029;-66
2021/12/23 08:25:41;;;;;;;57.47;22.27;;;;;;;-3.14;100.00;98948.00;4859125;29;20037;-65
2021/12/23 08:28:07;;;;;;;54.60;22.03;;;;;;;-3.15;100.00;98962.00;4859679;29;20392;-65
2021/12/23 08:30:34;;;;;;;55.23;21.53;;;;;;;-3.26;100.00;98977.66;4859583;29;20040;-66
2021/12/23 08:33:00;;;;;;;54.90;21.35;;;;;;;-3.06;100.00;98974.38;4860403;29;20086;-68
2021/12/23 08:35:25;;;;;;;52.63;21.77;;;;;;;-3.09;100.00;98934.56;4843299;29;20506;-68
2021/12/23 08:37:51;;;;;;;51.83;21.30;;;;;;;-3.07;100.00;98956.19;4838587;29;20045;-66
2021/12/23 08:40:23;;;;;;;49.87;22.40;;;;;;;-2.85;100.00;98958.84;4843654;29;20085;-67
2021/12/23 08:42:49;;;;;;;62.05;24.73;;;;;;;-2.89;100.00;98954.00;4859272;29;20552;-67
2021/12/23 08:45:16;;;;;;;53.63;21.05;;;;;;;-3.10;100.00;98957.25;4843795;29;20506;-65
2021/12/23 08:47:42;;;;;;;51.35;21.75;;;;;;;-3.00;100.00;98937.31;4854793;29;20052;-66
2021/12/23 08:50:10;;;;;;;55.17;22.53;;;;;;;-2.90;100.00;98947.09;4836669;29;20045;-67
2021/12/23 08:52:37;;;;;;;52.83;21.77;;;;;;;-2.96;100.00;98948.38;4851509;29;20493;-67
2021/12/23 08:55:05;;;;;;;49.17;20.75;;;;;;;-2.97;100.00;98954.56;4836614;29;20041;-68
2021/12/23 08:57:34;;;;;;;49.78;20.95;;;;;;;-2.73;100.00;98960.53;4837539;29;20048;-66
2021/12/23 08:59:59;;;;;;;57.15;22.98;;;;;;;-2.63;100.00;98951.03;4834965;29;20034;-68
2021/12/23 09:02:25;;;;;;;58.83;23.93;;;;;;;-3.06;100.00;98952.63;4852680;29;20372;-69
2021/12/23 09:04:51;;;;;;;48.43;21.33;;;;;;;-2.93;100.00;98954.22;4835048;29;20026;-67
2021/12/23 09:07:16;;;;;;;55.87;21.77;;;;;;;-2.82;100.00;98945.56;4855211;29;20033;-68
2021/12/23 09:09:46;;;;;;;55.37;21.87;;;;;;;-3.03;100.00;98934.13;4836577;29;20117;-66
2021/12/23 09:12:11;;;;;;;55.47;22.10;;;;;;;-2.85;100.00;98937.94;4835682;29;20067;-65
2021/12/23 09:14:37;;;;;;;52.80;22.30;;;;;;;-2.74;100.00;98935.34;4853502;29;20061;-67
2021/12/23 09:17:03;;;;;;;51.33;21.80;;;;;;;-2.80;100.00;98945.44;4835035;29;20090;-66
2021/12/23 09:19:29;;;;;;;51.38;21.42;;;;;;;-2.72;100.00;98959.59;4822298;29;20030;-70
2021/12/23 09:21:54;;;;;;;53.50;21.47;;;;;;;-2.70;100.00;98938.56;4822674;29;20088;-69
2021/12/23 09:24:20;;;;;;;51.77;22.27;;;;;;;-2.83;100.00;98933.44;4855071;29;20024;-69
2021/12/23 09:26:54;;;;;;;53.88;22.70;;;;;;;-2.77;100.00;98926.91;4843193;29;20396;-69
2021/12/23 09:34:49;;;;;;;49.47;21.00;;;;;;;-2.65;100.00;98911.06;4859046;29;20051;-66
2021/12/23 09:37:17;;;;;;;50.70;21.83;;;;;;;-2.65;100.00;98913.69;4859418;29;20029;-68
2021/12/23 09:39:44;;;;;;;57.05;21.77;;;;;;;-2.62;100.00;98920.47;4859078;29;20089;-66
2021/12/23 09:42:10;;;;;;;54.90;22.70;;;;;;;-2.74;100.00;98926.66;4842802;29;20053;-69
2021/12/23 09:44:37;;;;;;;56.95;22.83;;;;;;;-2.50;100.00;98893.38;4837300;29;20029;-67
2021/12/23 09:47:03;;;;;;;57.42;23.05;;;;;;;-2.43;100.00;98891.94;4847685;29;20125;-68
2021/12/23 09:49:30;;;;;;;59.00;23.92;;;;;;;-2.39;100.00;98880.25;4854052;29;20484;-66
2021/12/23 09:51:56;;;;;;;57.72;22.40;;;;;;;-2.61;100.00;98861.97;4840715;29;20026;-66
2021/12/23 09:54:24;;;;;;;58.15;23.27;;;;;;;-2.36;100.00;98879.19;4852031;29;20157;-66
2021/12/23 09:56:50;;;;;;;58.22;23.00;;;;;;;-2.90;100.00;98905.25;4832987;29;20029;-66
2021/12/23 09:59:16;;;;;;;56.97;22.83;;;;;;;-2.48;100.00;98906.31;4832236;29;20081;-69
2021/12/23 10:01:42;;;;;;;73.50;26.67;;;;;;;-2.59;100.00;98904.56;4836077;29;20036;-69
2021/12/23 10:04:09;;;;;;;76.90;28.43;;;;;;;-2.28;100.00;98903.81;4848949;29;20061;-70
2021/12/23 10:06:35;;;;;;;80.20;30.58;;;;;;;-2.15;100.00;98906.28;4850704;29;20040;-68
2021/12/23 10:09:02;;;;;;;78.28;29.52;;;;;;;-1.97;100.00;98893.53;4857358;29;20057;-67
2021/12/23 10:12:53;;;;;;;82.93;30.95;;;;;;;-1.87;100.00;98881.34;4858780;29;20038;-67
2021/12/23 10:31:09;;;;;;;114.43;39.50;;;;;;;-1.61;100.00;98837.28;4831617;29;19976;-68
2021/12/23 10:38:41;;;;;;;119.10;43.10;;;;;;;-1.64;100.00;98814.81;4840011;29;20042;-70
2021/12/23 10:41:08;;;;;;;118.78;41.28;;;;;;;-1.58;100.00;98811.66;4845006;29;20466;-70
2021/12/23 10:44:07;;;;;;;118.88;41.30;;;;;;;-1.84;100.00;98812.97;4857996;29;20038;-70
2021/12/23 10:46:37;;;;;;;117.70;43.45;;;;;;;-2.05;100.00;98818.19;4800428;29;20047;-70
2021/12/23 10:49:38;;;;;;;111.05;40.78;;;;;;;-2.05;100.00;98810.34;4800696;29;20039;-70
2021/12/23 10:52:15;;;;;;;111.60;39.80;;;;;;;-1.88;100.00;98812.41;4801521;29;20046;-70
2021/12/23 11:00:19;;;;;;;117.55;41.15;;;;;;;-1.20;100.00;98812.84;4783686;30;20068;-69
2021/12/23 11:03:16;;;;;;;111.57;38.63;;;;;;;-1.37;100.00;98795.09;4783494;30;20058;-69
2021/12/23 11:05:53;;;;;;;104.38;38.65;;;;;;;-1.61;100.00;98790.94;4783722;29;20038;-67
2021/12/23 11:30:41;;;;;;;77.75;30.25;;;;;;;-0.97;100.00;98751.41;4861288;29;20396;-68
2021/12/23 11:42:01;;;;;;;74.70;29.80;;;;;;;-0.61;100.00;98754.38;4861188;29;20037;-67
2021/12/23 11:43:59;;;;;;;83.93;32.80;;;;;;;-0.88;100.00;98741.88;4847716;29;20097;-68
2021/12/23 11:46:44;;;;;;;61.50;26.52;;;;;;;-0.71;100.00;98730.75;4844725;29;20483;-65
2021/12/23 11:49:13;;;;;;;71.22;29.23;;;;;;;-0.07;100.00;98740.75;4861060;29;20029;-66
2021/12/23 11:54:07;;;;;;;71.30;29.48;;;;;;;-0.17;100.00;98713.66;4861182;29;20038;-68
2021/12/23 11:56:36;;;;;;;64.85;28.33;;;;;;;-0.46;100.00;98680.34;4860756;29;20090;-67
2021/12/23 11:59:03;;;;;;;72.55;29.92;;;;;;;-0.52;100.00;98674.84;4860767;29;20140;-67
2021/12/23 12:01:32;;;;;;;73.22;29.90;;;;;;;-0.55;100.00;98672.47;4860674;29;20098;-67
2021/12/23 12:04:04;;;;;;;73.35;30.02;;;;;;;-0.82;100.00;98692.38;4860841;29;20514;-67
2021/12/23 12:06:45;;;;;;;75.45;30.60;;;;;;;-0.74;100.00;98696.91;4860671;29;20030;-69
2021/12/23 12:09:14;;;;;;;71.85;29.02;;;;;;;-0.86;100.00;98698.84;4840962;29;20528;-69
2021/12/23 12:11:42;;;;;;;68.47;28.98;;;;;;;-0.66;100.00;98694.44;4842134;29;20114;-69
2021/12/23 12:14:34;;;;;;;71.75;28.95;;;;;;;-0.74;100.00;98695.13;4842170;29;20029;-67
2021/12/23 12:17:30;;;;;;;65.18;28.50;;;;;;;-0.65;100.00;98676.91;4841989;29;20042;-68
2021/12/23 12:19:58;;;;;;;66.90;28.00;;;;;;;-1.13;100.00;98680.25;4842083;29;20025;-67
2021/12/23 12:22:45;;;;;;;71.93;28.27;;;;;;;-1.35;100.00;98680.47;4832624;29;20519;-65
2021/12/23 12:25:23;;;;;;;71.43;28.85;;;;;;;-0.90;100.00;98673.00;4831007;29;20511;-66